createdAt,value
2023-04-09T00:01:09.255Z,37.23
2023-04-09T00:06:01.471Z,34.80
2023-04-09T00:10:54.398Z,32.93
2023-04-09T00:15:47.624Z,32.97
2023-04-09T00:20:39.641Z,38.40
2023-04-09T00:25:31.712Z,32.50
2023-04-09T00:30:23.878Z,36.30
2023-04-09T00:35:17.496Z,31.23
2023-04-09T00:40:12.326Z,32.07
2023-04-09T00:45:05.372Z,38.27
2023-04-09T00:49:58.368Z,36.77
2023-04-09T00:54:53.562Z,34.50
2023-04-09T00:59:46.075Z,36.07
2023-04-09T01:04:40.639Z,33.13
2023-04-09T01:15:25.580Z,33.57
2023-04-09T01:20:33.291Z,31.17
2023-04-09T01:25:53.253Z,29.50
2023-04-09T01:30:50.422Z,29.27
2023-04-09T01:35:47.635Z,32.43
2023-04-09T01:40:41.595Z,31.67
2023-04-09T01:45:35.056Z,31.87
2023-04-09T01:50:28.182Z,31.47
2023-04-09T01:55:20.298Z,36.40
2023-04-09T02:00:14.169Z,33.53
2023-04-09T02:05:14.412Z,34.37
2023-04-09T02:10:08.600Z,32.27
2023-04-09T02:15:03.150Z,32.83
2023-04-09T02:19:55.484Z,33.53
2023-04-09T02:24:47.725Z,36.83
2023-04-09T02:29:41.629Z,32.87
2023-04-09T02:34:33.654Z,34.97
2023-04-09T02:39:26.074Z,31.73
2023-04-09T02:44:18.181Z,35.23
2023-04-09T02:49:10.229Z,34.03
2023-04-09T02:54:02.758Z,34.67
2023-04-09T02:58:55.358Z,33.93
2023-04-09T03:03:47.669Z,35.43
2023-04-09T03:08:39.842Z,34.53
2023-04-09T03:13:32.088Z,33.73
2023-04-09T03:18:24.075Z,36.57
2023-04-09T03:23:16.163Z,34.60
2023-04-09T03:28:13.094Z,39.03
2023-04-09T03:33:14.986Z,36.83
2023-04-09T03:38:15.765Z,37.77
2023-04-09T03:43:07.708Z,34.40
2023-04-09T03:48:03.054Z,31.60
2023-04-09T03:52:55.183Z,31.57
2023-04-09T03:57:48.787Z,30.63
2023-04-09T04:02:44.383Z,35.50
2023-04-09T04:07:37.172Z,32.30
2023-04-09T04:12:36.902Z,29.70
2023-04-09T04:17:33.118Z,33.00
2023-04-09T04:22:28.815Z,32.93
2023-04-09T04:27:24.736Z,33.93
2023-04-09T04:32:17.603Z,36.47
2023-04-09T04:37:09.928Z,35.97
2023-04-09T04:42:04.792Z,34.80
2023-04-09T04:46:57.434Z,38.07
2023-04-09T04:51:49.570Z,45.37
2023-04-09T04:56:42.365Z,37.30
2023-04-09T05:02:00.615Z,39.00
2023-04-09T05:06:56.153Z,35.97
2023-04-09T05:11:50.108Z,36.90
2023-04-09T05:16:45.736Z,41.87
2023-04-09T05:21:40.322Z,35.27
2023-04-09T05:26:32.680Z,32.50
2023-04-09T05:31:25.593Z,31.60
2023-04-09T05:36:23.547Z,32.30
2023-04-09T05:41:17.739Z,32.70
2023-04-09T05:46:48.235Z,29.23
2023-04-09T05:51:44.501Z,28.43
2023-04-09T05:56:43.314Z,31.83
2023-04-09T06:01:35.531Z,26.33
2023-04-09T06:06:28.926Z,25.87
2023-04-09T06:11:22.916Z,25.13
2023-04-09T06:16:16.283Z,23.90
2023-04-09T06:21:09.218Z,21.40
2023-04-09T06:26:02.837Z,21.03
2023-04-09T06:30:55.486Z,19.87
2023-04-09T06:35:48.711Z,23.23
2023-04-09T06:40:42.310Z,22.77
2023-04-09T06:45:34.673Z,24.13
2023-04-09T06:50:27.283Z,23.97
2023-04-09T06:55:19.503Z,21.60
2023-04-09T07:00:12.231Z,22.20
2023-04-09T07:05:05.113Z,23.27
2023-04-09T07:09:57.091Z,24.40
2023-04-09T07:14:49.090Z,24.77
2023-04-09T07:19:41.092Z,26.27
2023-04-09T07:24:33.047Z,29.43
2023-04-09T07:29:25.025Z,28.13
2023-04-09T07:34:17.037Z,28.23
2023-04-09T07:39:09.127Z,26.87
2023-04-09T07:44:03.379Z,25.73
2023-04-09T07:48:55.544Z,25.97
2023-04-09T07:53:47.668Z,27.17
2023-04-09T07:58:39.680Z,26.27
2023-04-09T08:03:32.009Z,24.47
2023-04-09T08:08:24.112Z,24.05
2023-04-09T08:13:16.130Z,22.42
2023-04-09T08:18:08.265Z,23.48
2023-04-09T08:23:00.325Z,24.33
2023-04-09T08:27:52.275Z,25.63
2023-04-09T08:32:45.643Z,25.97
2023-04-09T08:37:37.654Z,24.45
2023-04-09T08:42:31.798Z,23.05
2023-04-09T08:47:24.528Z,24.50
2023-04-09T08:52:19.137Z,24.17
2023-04-09T08:57:11.080Z,25.43
2023-04-09T09:02:12.723Z,24.67
2023-04-09T09:07:06.905Z,22.90
2023-04-09T09:11:58.862Z,22.50
2023-04-09T09:16:56.652Z,23.13
2023-04-09T09:21:59.950Z,21.43
2023-04-09T09:26:52.743Z,21.97
2023-04-09T09:31:49.391Z,21.70
2023-04-09T09:36:41.408Z,20.97
2023-04-09T09:41:33.451Z,22.23
2023-04-09T09:46:26.538Z,22.00
2023-04-09T09:51:19.690Z,22.03
2023-04-09T09:56:16.886Z,19.70
2023-04-09T10:01:12.188Z,22.30
2023-04-09T10:06:04.664Z,22.67
2023-04-09T10:10:56.816Z,21.40
2023-04-09T10:15:49.674Z,20.75
2023-04-09T10:20:49.239Z,18.42
2023-04-09T10:25:42.277Z,20.55
2023-04-09T10:30:37.720Z,20.88
2023-04-09T10:35:30.945Z,21.10
2023-04-09T10:40:22.953Z,21.00
2023-04-09T10:45:16.875Z,22.83
2023-04-09T10:50:30.840Z,24.60
2023-04-09T10:55:37.161Z,23.00
2023-04-09T11:00:29.216Z,25.80
2023-04-09T11:05:36.509Z,21.63
2023-04-09T11:10:28.524Z,25.43
2023-04-09T11:15:21.220Z,22.03
2023-04-09T11:20:18.332Z,22.87
2023-04-09T11:25:10.497Z,23.23
2023-04-09T11:30:02.487Z,22.53
2023-04-09T11:34:57.157Z,21.13
2023-04-09T11:39:55.627Z,20.10
2023-04-09T11:44:50.382Z,20.80
2023-04-09T11:49:42.575Z,19.93
2023-04-09T11:54:34.858Z,22.67
2023-04-09T11:59:26.991Z,22.27
2023-04-09T12:04:22.339Z,20.50
2023-04-09T12:09:14.970Z,21.13
2023-04-09T12:14:06.919Z,21.30
2023-04-09T12:19:09.670Z,19.97
2023-04-09T12:24:01.654Z,17.70
2023-04-09T12:28:53.882Z,15.13
2023-04-09T12:33:46.130Z,15.87
2023-04-09T12:38:38.207Z,17.03
2023-04-09T12:43:30.466Z,19.90
2023-04-09T12:48:22.443Z,19.73
2023-04-09T12:53:14.478Z,23.67
2023-04-09T12:58:06.567Z,20.97
2023-04-09T13:02:58.602Z,20.63
2023-04-09T13:07:51.447Z,20.70
2023-04-09T13:12:45.922Z,23.20
2023-04-09T13:17:37.917Z,22.43
2023-04-09T13:22:29.985Z,24.97
2023-04-09T13:27:22.128Z,22.80
2023-04-09T13:32:14.129Z,23.17
2023-04-09T13:37:06.313Z,22.90
2023-04-09T13:41:58.318Z,23.10
2023-04-09T13:46:50.509Z,22.37
2023-04-09T13:51:42.693Z,20.30
2023-04-09T13:56:34.745Z,18.93
2023-04-09T14:01:28.055Z,17.40
2023-04-09T14:06:20.370Z,19.00
2023-04-09T14:11:15.256Z,20.50
2023-04-09T14:16:08.184Z,18.17
2023-04-09T14:21:01.311Z,16.40
2023-04-09T14:25:53.576Z,15.17
2023-04-09T14:30:45.772Z,15.60
2023-04-09T14:35:37.833Z,15.23
2023-04-09T14:40:32.820Z,14.50
2023-04-09T14:45:24.855Z,15.30
2023-04-09T14:50:17.072Z,14.50
2023-04-09T14:55:12.464Z,12.27
2023-04-09T15:00:05.486Z,9.70
2023-04-09T15:04:57.533Z,11.43
2023-04-09T15:09:49.629Z,12.70
2023-04-09T15:14:41.659Z,12.80
2023-04-09T15:19:33.719Z,13.07
2023-04-09T15:24:25.667Z,12.63
2023-04-09T15:29:17.671Z,11.93
2023-04-09T15:34:09.820Z,13.67
2023-04-09T15:39:06.600Z,12.30
2023-04-09T15:43:58.985Z,14.50
2023-04-09T15:48:51.159Z,13.80
2023-04-09T15:53:43.394Z,14.57
2023-04-09T15:58:36.178Z,15.70
2023-04-09T16:03:28.239Z,14.73
2023-04-09T16:08:20.448Z,14.03
2023-04-09T16:13:12.539Z,14.87
2023-04-09T16:18:04.660Z,17.27
2023-04-09T16:22:56.683Z,14.13
2023-04-09T16:27:48.636Z,14.60
2023-04-09T16:32:40.842Z,15.77
2023-04-09T16:37:35.069Z,13.97
2023-04-09T16:42:27.400Z,14.33
2023-04-09T16:47:19.449Z,15.20
2023-04-09T16:52:11.590Z,15.30
2023-04-09T16:57:03.641Z,14.03
2023-04-09T17:01:55.754Z,15.10
2023-04-09T17:06:47.813Z,13.53
2023-04-09T17:11:39.886Z,14.90
2023-04-09T17:16:32.280Z,14.20
2023-04-09T17:21:24.330Z,14.83
2023-04-09T17:26:16.902Z,16.47
2023-04-09T17:31:15.942Z,15.60
2023-04-09T17:36:08.370Z,17.03
2023-04-09T17:41:00.429Z,15.47
2023-04-09T17:45:52.586Z,19.67
2023-04-09T17:50:44.600Z,18.27
2023-04-09T17:55:36.864Z,25.37
2023-04-09T18:00:28.854Z,18.60
2023-04-09T18:05:22.115Z,18.50
2023-04-09T18:10:14.154Z,17.40
2023-04-09T18:15:07.991Z,19.20
2023-04-09T18:19:59.998Z,18.90
2023-04-09T18:24:52.734Z,20.77
2023-04-09T18:29:44.682Z,21.87
2023-04-09T18:34:37.469Z,23.07
2023-04-09T18:39:30.940Z,22.13
2023-04-09T18:44:23.039Z,20.13
2023-04-09T18:49:15.435Z,20.03
2023-04-09T18:54:07.422Z,19.60
2023-04-09T18:58:59.329Z,19.07
2023-04-09T19:03:51.869Z,18.20
2023-04-09T19:08:48.061Z,17.87
2023-04-09T19:13:40.622Z,24.73
2023-04-09T19:18:34.291Z,25.53
2023-04-09T19:23:26.930Z,25.87
2023-04-09T19:28:19.245Z,23.93
2023-04-09T19:33:11.251Z,22.63
2023-04-09T19:38:04.751Z,22.27
2023-04-09T19:42:57.327Z,28.60
2023-04-09T19:47:49.449Z,24.77
2023-04-09T19:52:41.479Z,18.67
2023-04-09T19:57:33.564Z,26.20
2023-04-09T20:02:25.790Z,24.43
2023-04-09T20:07:18.062Z,23.93
2023-04-09T20:12:10.331Z,18.37
2023-04-09T20:17:02.458Z,21.37
2023-04-09T20:22:00.092Z,22.47
2023-04-09T20:26:52.114Z,20.50
2023-04-09T20:31:44.392Z,24.73
2023-04-09T20:36:37.829Z,22.13
2023-04-09T20:41:29.819Z,23.43
2023-04-09T20:46:21.830Z,22.80
2023-04-09T20:51:14.233Z,29.13
2023-04-09T20:56:07.386Z,25.17
2023-04-09T21:01:09.862Z,24.63
2023-04-09T21:06:02.813Z,27.23
2023-04-09T21:10:55.382Z,24.33
2023-04-09T21:15:48.173Z,26.53
2023-04-09T21:20:44.535Z,40.67
2023-04-09T21:25:36.785Z,52.57
2023-04-09T21:30:29.736Z,65.10
2023-04-09T21:35:22.075Z,40.77
2023-04-09T21:40:15.153Z,59.70
2023-04-09T21:45:09.083Z,77.20
2023-04-09T21:50:01.165Z,27.27
2023-04-09T21:54:53.189Z,33.90
2023-04-09T21:59:45.364Z,30.27
2023-04-09T22:04:37.960Z,38.07
2023-04-09T22:09:31.017Z,27.13
2023-04-09T22:14:23.149Z,31.53
2023-04-09T22:19:15.359Z,30.37
2023-04-09T22:24:07.697Z,31.97
2023-04-09T22:28:59.716Z,31.27
2023-04-09T22:33:51.644Z,29.00
2023-04-09T22:38:43.740Z,32.43
2023-04-09T22:43:36.312Z,28.77
2023-04-09T22:48:29.102Z,33.10
2023-04-09T22:53:21.281Z,33.70
2023-04-09T22:58:13.390Z,32.63
2023-04-09T23:03:06.050Z,30.90
2023-04-09T23:07:58.486Z,34.40
2023-04-09T23:12:50.610Z,35.97
2023-04-09T23:17:42.998Z,39.23
2023-04-09T23:22:35.246Z,36.40
2023-04-09T23:27:28.821Z,37.70
2023-04-09T23:32:22.338Z,35.37
2023-04-09T23:37:14.335Z,35.90
2023-04-09T23:42:06.595Z,35.80
2023-04-09T23:46:59.657Z,37.27
2023-04-09T23:51:51.817Z,32.03
2023-04-09T23:56:43.799Z,35.47
